createdAt,value
2019-05-01T00:04:46.580Z,37.87
2019-05-01T00:09:51.242Z,37.40
2019-05-01T00:14:55.475Z,36.87
2019-05-01T00:19:59.674Z,36.10
2019-05-01T00:25:04.058Z,37.00
2019-05-01T00:30:10.233Z,37.90
2019-05-01T00:35:14.283Z,37.17
2019-05-01T00:40:18.800Z,37.10
2019-05-01T00:45:24.340Z,36.73
2019-05-01T00:50:28.679Z,38.03
2019-05-01T00:55:43.987Z,37.55
2019-05-01T01:00:58.998Z,36.93
2019-05-01T01:06:03.469Z,38.27
2019-05-01T01:11:07.747Z,37.13
2019-05-01T01:16:12.292Z,37.90
2019-05-01T01:21:16.943Z,39.03
2019-05-01T01:26:21.204Z,39.00
2019-05-01T01:31:25.642Z,38.17
2019-05-01T01:36:29.866Z,39.33
2019-05-01T01:41:34.637Z,38.43
2019-05-01T01:46:43.161Z,37.47
2019-05-01T01:51:47.686Z,37.87
2019-05-01T01:56:51.942Z,39.10
2019-05-01T02:02:00.834Z,38.53
2019-05-01T02:07:06.051Z,38.77
2019-05-01T02:12:10.276Z,37.60
2019-05-01T02:17:14.531Z,38.60
2019-05-01T02:22:18.539Z,38.37
2019-05-01T02:27:30.219Z,38.77
2019-05-01T02:32:36.351Z,38.83
2019-05-01T02:37:40.715Z,39.83
2019-05-01T02:42:45.862Z,38.70
2019-05-01T02:47:51.480Z,39.92
2019-05-01T02:52:55.835Z,40.10
2019-05-01T02:58:00.680Z,38.53
2019-05-01T03:03:05.126Z,40.63
2019-05-01T03:08:09.362Z,39.07
2019-05-01T03:13:13.238Z,38.77
2019-05-01T03:18:19.819Z,40.07
2019-05-01T03:23:25.799Z,37.43
2019-05-01T03:28:31.004Z,40.63
2019-05-01T03:33:35.299Z,37.88
2019-05-01T03:38:39.597Z,40.93
2019-05-01T03:43:43.467Z,41.10
2019-05-01T03:48:47.811Z,42.13
2019-05-01T03:53:51.999Z,41.27
2019-05-01T03:58:56.138Z,40.57
2019-05-01T04:04:05.781Z,41.17
2019-05-01T04:09:09.975Z,42.90
2019-05-01T04:14:14.011Z,41.87
2019-05-01T04:19:18.484Z,42.10
2019-05-01T04:24:22.467Z,40.83
2019-05-01T04:29:28.526Z,42.83
2019-05-01T04:34:34.767Z,43.90
2019-05-01T04:39:39.433Z,41.30
2019-05-01T04:44:43.671Z,42.17
2019-05-01T04:49:48.199Z,42.90
2019-05-01T04:54:52.487Z,42.40
2019-05-01T04:59:57.077Z,42.33
2019-05-01T05:05:01.426Z,48.50
2019-05-01T05:10:06.223Z,58.50
2019-05-01T05:15:26.934Z,56.27
2019-05-01T05:20:32.152Z,56.98
2019-05-01T05:25:36.641Z,55.80
2019-05-01T05:30:44.323Z,60.43
2019-05-01T05:35:49.879Z,58.00
2019-05-01T05:40:54.034Z,73.80
2019-05-01T05:45:59.359Z,59.27
2019-05-01T05:51:05.744Z,62.83
2019-05-01T05:56:17.503Z,58.53
2019-05-01T06:01:29.435Z,59.70
2019-05-01T06:06:36.575Z,58.20
2019-05-01T06:11:45.325Z,58.83
2019-05-01T06:16:56.902Z,58.87
2019-05-01T06:22:10.032Z,59.87
2019-05-01T06:27:14.891Z,59.33
2019-05-01T06:32:19.354Z,58.90
2019-05-01T06:37:25.310Z,62.63
2019-05-01T06:42:30.393Z,60.20
2019-05-01T06:47:38.161Z,62.30
2019-05-01T06:52:42.162Z,61.47
2019-05-01T06:57:46.101Z,60.53
2019-05-01T07:02:50.616Z,63.77
2019-05-01T07:07:55.762Z,59.80
2019-05-01T07:13:04.952Z,62.30
2019-05-01T07:18:11.263Z,60.43
2019-05-01T07:23:17.352Z,65.33
2019-05-01T07:28:20.991Z,65.10
2019-05-01T07:33:26.963Z,65.87
2019-05-01T07:38:33.025Z,66.83
2019-05-01T07:43:47.528Z,65.10
2019-05-01T07:48:52.611Z,65.77
2019-05-01T07:53:59.158Z,68.97
2019-05-01T07:59:04.522Z,68.63
2019-05-01T08:04:09.079Z,69.60
2019-05-01T08:09:15.200Z,67.83
2019-05-01T08:14:20.020Z,66.37
2019-05-01T08:19:29.675Z,69.50
2019-05-01T08:24:33.881Z,67.27
2019-05-01T08:29:43.846Z,67.93
2019-05-01T08:34:49.328Z,70.33
2019-05-01T08:39:54.066Z,71.67
2019-05-01T08:45:05.123Z,73.63
2019-05-01T08:50:11.238Z,76.77
2019-05-01T08:55:15.234Z,73.67
2019-05-01T09:00:19.171Z,73.13
2019-05-01T09:05:28.713Z,72.63
2019-05-01T09:10:29.919Z,73.53
2019-05-01T09:15:34.219Z,74.70
2019-05-01T09:20:40.540Z,73.57
2019-05-01T09:26:06.711Z,75.30
2019-05-01T09:31:12.408Z,73.65
2019-05-01T09:36:16.439Z,72.20
2019-05-01T09:41:20.655Z,73.57
2019-05-01T09:46:24.631Z,73.47
2019-05-01T09:51:47.481Z,71.03
2019-05-01T09:56:52.984Z,74.20
2019-05-01T10:01:57.281Z,72.63
2019-05-01T10:07:02.263Z,70.43
2019-05-01T10:12:11.474Z,71.37
2019-05-01T10:17:13.561Z,67.93
2019-05-01T10:22:19.287Z,70.37
2019-05-01T10:27:25.571Z,66.83
2019-05-01T10:32:43.291Z,66.20
2019-05-01T10:37:47.853Z,69.87
2019-05-01T10:42:52.386Z,70.03
2019-05-01T10:47:56.923Z,69.25
2019-05-01T10:53:01.489Z,69.47
2019-05-01T10:58:06.134Z,70.67
2019-05-01T11:08:07.907Z,70.73
2019-05-01T11:13:12.262Z,71.97
2019-05-01T11:18:16.230Z,70.40
2019-05-01T11:23:20.226Z,68.20
2019-05-01T11:28:24.829Z,67.43
2019-05-01T11:33:36.654Z,67.27
2019-05-01T11:38:52.632Z,65.87
2019-05-01T11:43:56.838Z,68.20
2019-05-01T11:49:00.962Z,65.03
2019-05-01T11:54:05.230Z,61.77
2019-05-01T11:59:09.535Z,64.23
2019-05-01T12:04:13.744Z,64.80
2019-05-01T12:09:18.881Z,61.70
2019-05-01T12:14:22.843Z,63.90
2019-05-01T12:19:28.371Z,61.87
2019-05-01T12:24:32.830Z,60.17
2019-05-01T12:29:37.141Z,58.30
2019-05-01T12:34:41.350Z,59.00
2019-05-01T12:39:46.358Z,57.27
2019-05-01T12:44:50.952Z,58.80
2019-05-01T12:49:56.216Z,58.13
2019-05-01T12:55:10.479Z,55.33
2019-05-01T13:00:16.908Z,56.53
2019-05-01T13:05:21.242Z,56.63
2019-05-01T13:10:25.697Z,54.77
2019-05-01T13:15:29.664Z,51.70
2019-05-01T13:20:33.862Z,50.37
2019-05-01T13:25:38.150Z,55.37
2019-05-01T13:30:43.925Z,52.47
2019-05-01T13:35:48.159Z,51.53
2019-05-01T13:40:52.603Z,52.20
2019-05-01T13:46:00.275Z,50.13
2019-05-01T13:51:04.153Z,50.77
2019-05-01T13:56:08.358Z,53.03
2019-05-01T14:01:13.555Z,51.37
2019-05-01T14:06:17.517Z,49.30
2019-05-01T14:11:21.988Z,50.60
2019-05-01T14:16:26.283Z,47.97
2019-05-01T14:21:32.218Z,49.80
2019-05-01T14:26:36.555Z,49.17
2019-05-01T14:31:41.075Z,46.27
2019-05-01T14:36:45.050Z,48.77
2019-05-01T14:41:49.260Z,47.87
2019-05-01T14:46:53.882Z,49.53
2019-05-01T14:51:58.187Z,47.17
2019-05-01T14:57:02.150Z,46.40
2019-05-01T15:02:06.379Z,48.37
2019-05-01T15:07:11.287Z,50.27
2019-05-01T15:12:15.638Z,45.73
2019-05-01T15:17:30.529Z,46.93
2019-05-01T15:22:34.866Z,44.63
2019-05-01T15:27:39.179Z,47.17
2019-05-01T15:32:43.142Z,41.30
2019-05-01T15:37:56.651Z,45.57
2019-05-01T15:42:54.575Z,42.83
2019-05-01T15:47:58.547Z,41.70
2019-05-01T15:53:02.702Z,43.20
2019-05-01T15:58:06.895Z,42.03
2019-05-01T16:03:11.194Z,48.50
2019-05-01T16:08:15.247Z,44.53
2019-05-01T16:13:19.739Z,43.57
2019-05-01T16:18:23.696Z,42.33
2019-05-01T16:23:27.901Z,44.73
2019-05-01T16:28:32.386Z,45.60
2019-05-01T16:33:36.734Z,46.03
2019-05-01T16:38:58.643Z,47.60
2019-05-01T16:44:02.601Z,48.40
2019-05-01T16:49:06.955Z,45.83
2019-05-01T16:54:11.840Z,45.20
2019-05-01T16:59:15.865Z,46.30
2019-05-01T17:04:30.819Z,41.37
2019-05-01T17:09:53.414Z,43.77
2019-05-01T17:14:57.723Z,42.20
2019-05-01T17:20:02.261Z,42.47
2019-05-01T17:25:07.732Z,43.80
2019-05-01T17:30:14.259Z,43.77
2019-05-01T17:35:18.219Z,44.03
2019-05-01T17:40:22.092Z,44.97
2019-05-01T17:45:29.837Z,43.33
2019-05-01T17:50:31.879Z,42.83
2019-05-01T17:55:36.663Z,43.10
2019-05-01T18:00:42.592Z,43.20
2019-05-01T18:06:05.110Z,42.65
2019-05-01T18:11:13.608Z,40.83
2019-05-01T18:16:15.403Z,40.17
2019-05-01T18:21:21.178Z,41.27
2019-05-01T18:26:27.123Z,40.77
2019-05-01T18:31:31.867Z,41.27
2019-05-01T18:36:38.287Z,40.80
2019-05-01T18:41:47.237Z,40.13
2019-05-01T18:46:51.820Z,39.73
2019-05-01T18:51:55.813Z,40.67
2019-05-01T18:57:00.356Z,39.23
2019-05-01T19:02:05.014Z,41.20
2019-05-01T19:07:09.050Z,40.58
2019-05-01T19:12:15.230Z,41.67
2019-05-01T19:17:19.583Z,41.83
2019-05-01T19:22:23.915Z,41.83
2019-05-01T19:27:28.639Z,42.47
2019-05-01T19:32:33.032Z,42.17
2019-05-01T19:37:37.420Z,42.80
2019-05-01T19:42:41.754Z,42.97
2019-05-01T19:47:46.190Z,42.73
2019-05-01T19:52:50.512Z,43.43
2019-05-01T19:57:55.069Z,42.57
2019-05-01T20:03:00.587Z,43.30
2019-05-01T20:08:04.618Z,43.30
2019-05-01T20:13:12.246Z,44.57
2019-05-01T20:18:14.819Z,43.20
2019-05-01T20:23:18.968Z,44.53
2019-05-01T20:28:23.191Z,46.10
2019-05-01T20:33:27.502Z,46.47
2019-05-01T20:38:31.783Z,45.83
2019-05-01T20:43:38.111Z,48.17
2019-05-01T20:48:42.338Z,47.30
2019-05-01T20:53:46.303Z,46.37
2019-05-01T20:58:50.822Z,48.07
2019-05-01T21:04:03.283Z,46.53
2019-05-01T21:09:13.930Z,49.73
2019-05-01T21:14:21.757Z,50.83
2019-05-01T21:19:23.267Z,52.65
2019-05-01T21:24:27.794Z,51.93
2019-05-01T21:29:34.193Z,50.87
2019-05-01T21:34:38.237Z,49.98
2019-05-01T21:39:43.677Z,49.73
2019-05-01T21:44:47.939Z,51.77
2019-05-01T21:49:52.967Z,51.03
2019-05-01T21:54:57.510Z,53.37
2019-05-01T22:00:01.717Z,52.07
2019-05-01T22:05:07.903Z,50.97
2019-05-01T22:10:12.643Z,50.13
2019-05-01T22:15:18.947Z,50.93
2019-05-01T22:20:30.666Z,49.55
2019-05-01T22:25:39.512Z,50.17
2019-05-01T22:31:00.618Z,51.83
2019-05-01T22:36:05.330Z,50.83
2019-05-01T22:41:13.227Z,51.67
2019-05-01T22:46:19.395Z,49.73
2019-05-01T22:51:24.149Z,50.90
2019-05-01T22:56:28.682Z,49.80
2019-05-01T23:01:32.951Z,52.27
2019-05-01T23:06:41.881Z,50.30
2019-05-01T23:11:45.496Z,50.37
2019-05-01T23:16:52.563Z,52.37
2019-05-01T23:21:58.351Z,49.97
2019-05-01T23:27:03.944Z,49.90
2019-05-01T23:32:07.810Z,50.50
2019-05-01T23:37:12.290Z,51.50
2019-05-01T23:42:16.841Z,53.43
2019-05-01T23:47:21.523Z,53.10
2019-05-01T23:52:25.832Z,49.47
2019-05-01T23:57:30.283Z,54.07
